createdAt,value
2023-04-20T00:02:17.777Z,8.60
2023-04-20T00:04:45.001Z,8.52
2023-04-20T00:07:11.989Z,8.47
2023-04-20T00:09:39.024Z,8.42
2023-04-20T00:12:06.226Z,8.30
2023-04-20T00:14:33.020Z,8.17
2023-04-20T00:17:00.227Z,8.13
2023-04-20T00:19:28.576Z,8.08
2023-04-20T00:21:55.410Z,8.03
2023-04-20T00:24:23.894Z,8.10
2023-04-20T00:26:50.906Z,8.08
2023-04-20T00:29:18.009Z,8.02
2023-04-20T00:31:45.215Z,8.06
2023-04-20T00:34:12.184Z,8.01
2023-04-20T00:36:39.079Z,7.89
2023-04-20T00:39:06.020Z,8.03
2023-04-20T00:41:33.042Z,8.00
2023-04-20T00:44:00.381Z,8.06
2023-04-20T00:46:27.459Z,8.07
2023-04-20T00:48:55.034Z,7.98
2023-04-20T00:51:22.927Z,8.14
2023-04-20T00:53:49.961Z,7.95
2023-04-20T00:56:17.220Z,7.86
2023-04-20T00:58:44.347Z,7.76
2023-04-20T01:01:12.249Z,7.69
2023-04-20T01:03:42.600Z,7.36
2023-04-20T01:06:11.222Z,7.08
2023-04-20T01:08:50.754Z,7.13
2023-04-20T01:11:18.383Z,7.08
2023-04-20T01:13:45.650Z,7.07
2023-04-20T01:16:13.357Z,7.01
2023-04-20T01:18:44.608Z,7.07
2023-04-20T01:21:16.963Z,7.16
2023-04-20T01:23:44.288Z,7.18
2023-04-20T01:26:13.328Z,7.27
2023-04-20T01:28:40.366Z,7.37
2023-04-20T01:31:08.453Z,7.19
2023-04-20T01:33:35.728Z,6.92
2023-04-20T01:36:03.025Z,6.70
2023-04-20T01:38:33.107Z,6.37
2023-04-20T01:41:00.321Z,5.88
2023-04-20T01:43:28.011Z,6.08
2023-04-20T01:45:54.885Z,6.01
2023-04-20T01:48:22.758Z,6.02
2023-04-20T01:50:53.341Z,6.03
2023-04-20T01:53:21.025Z,6.00
2023-04-20T01:55:48.757Z,6.07
2023-04-20T01:58:16.075Z,6.25
2023-04-20T02:00:43.363Z,6.37
2023-04-20T02:03:10.548Z,6.41
2023-04-20T02:05:37.708Z,6.37
2023-04-20T02:08:05.070Z,6.35
2023-04-20T02:10:32.105Z,6.40
2023-04-20T02:12:59.003Z,6.39
2023-04-20T02:15:26.107Z,6.38
2023-04-20T02:17:53.011Z,6.32
2023-04-20T02:20:20.607Z,6.17
2023-04-20T02:22:47.441Z,6.16
2023-04-20T02:25:14.666Z,5.94
2023-04-20T02:27:42.376Z,5.65
2023-04-20T02:30:10.733Z,5.53
2023-04-20T02:32:37.756Z,5.51
2023-04-20T02:35:05.035Z,5.41
2023-04-20T02:37:31.853Z,5.40
2023-04-20T02:39:58.982Z,5.37
2023-04-20T02:42:25.937Z,5.40
2023-04-20T02:44:53.031Z,5.43
2023-04-20T02:47:20.254Z,5.52
2023-04-20T02:49:47.724Z,5.45
2023-04-20T02:52:15.046Z,5.44
2023-04-20T02:54:42.089Z,5.55
2023-04-20T02:57:08.990Z,5.65
2023-04-20T02:59:36.066Z,5.71
2023-04-20T03:02:03.174Z,5.82
2023-04-20T03:04:31.271Z,5.75
2023-04-20T03:06:59.085Z,5.93
2023-04-20T03:09:26.302Z,5.80
2023-04-20T03:11:53.274Z,5.85
2023-04-20T03:14:20.483Z,5.92
2023-04-20T03:16:47.691Z,5.84
2023-04-20T03:19:14.511Z,5.86
2023-04-20T03:21:41.498Z,5.92
2023-04-20T03:24:08.361Z,6.10
2023-04-20T03:26:35.176Z,6.15
2023-04-20T03:29:02.533Z,6.13
2023-04-20T03:31:29.538Z,6.24
2023-04-20T03:33:59.165Z,6.15
2023-04-20T03:36:26.044Z,6.25
2023-04-20T03:38:52.854Z,6.28
2023-04-20T03:41:19.791Z,6.39
2023-04-20T03:43:46.653Z,6.35
2023-04-20T03:46:13.618Z,6.29
2023-04-20T03:48:40.879Z,6.11
2023-04-20T03:51:07.796Z,5.98
2023-04-20T03:53:35.752Z,5.76
2023-04-20T03:56:03.447Z,5.42
2023-04-20T03:58:31.210Z,5.15
2023-04-20T04:01:03.388Z,5.08
2023-04-20T04:03:30.598Z,5.03
2023-04-20T04:05:57.623Z,5.15
2023-04-20T04:08:24.700Z,5.06
2023-04-20T04:10:51.773Z,5.05
2023-04-20T04:13:18.755Z,4.95
2023-04-20T04:15:45.637Z,5.11
2023-04-20T04:18:12.544Z,5.00
2023-04-20T04:20:39.507Z,4.82
2023-04-20T04:23:07.114Z,4.83
2023-04-20T04:25:34.693Z,4.81
2023-04-20T04:28:01.848Z,4.80
2023-04-20T04:30:29.631Z,4.91
2023-04-20T04:32:56.842Z,5.02
2023-04-20T04:35:24.161Z,4.98
2023-04-20T04:37:52.944Z,5.19
2023-04-20T04:40:20.222Z,5.06
2023-04-20T04:42:47.860Z,5.27
2023-04-20T04:45:15.000Z,5.16
2023-04-20T04:47:42.726Z,4.90
2023-04-20T04:50:11.036Z,4.97
2023-04-20T04:52:38.004Z,4.94
2023-04-20T04:55:08.515Z,4.88
2023-04-20T04:57:36.572Z,4.83
2023-04-20T05:00:07.158Z,4.74
2023-04-20T05:02:34.362Z,4.82
2023-04-20T05:05:01.480Z,4.85
2023-04-20T05:07:28.472Z,4.78
2023-04-20T05:09:55.375Z,4.88
2023-04-20T05:12:22.486Z,5.00
2023-04-20T05:14:49.503Z,4.96
2023-04-20T05:17:16.498Z,5.03
2023-04-20T05:19:43.587Z,4.99
2023-04-20T05:22:10.850Z,5.10
2023-04-20T05:24:37.703Z,4.69
2023-04-20T05:27:04.785Z,5.02
2023-04-20T05:29:32.783Z,5.05
2023-04-20T05:31:59.919Z,5.21
2023-04-20T05:34:26.977Z,5.06
2023-04-20T05:36:55.094Z,5.02
2023-04-20T05:39:22.267Z,5.25
2023-04-20T05:41:49.985Z,5.15
2023-04-20T05:44:17.371Z,5.15
2023-04-20T05:46:44.335Z,5.20
2023-04-20T05:49:11.265Z,5.04
2023-04-20T05:51:38.365Z,5.07
2023-04-20T05:54:06.021Z,5.30
2023-04-20T05:56:33.066Z,5.22
2023-04-20T05:59:00.689Z,5.12
2023-04-20T06:01:27.918Z,5.25
2023-04-20T06:03:54.947Z,5.15
2023-04-20T06:06:21.971Z,5.18
2023-04-20T06:08:48.899Z,5.28
2023-04-20T06:11:15.834Z,5.35
2023-04-20T06:13:42.835Z,5.48
2023-04-20T06:16:11.290Z,5.35
2023-04-20T06:18:38.204Z,5.41
2023-04-20T06:21:05.209Z,5.29
2023-04-20T06:23:32.336Z,5.45
2023-04-20T06:25:59.200Z,5.46
2023-04-20T06:28:26.209Z,5.54
2023-04-20T06:30:53.056Z,5.46
2023-04-20T06:33:20.040Z,5.56
2023-04-20T06:35:46.940Z,5.55
2023-04-20T06:38:14.337Z,5.45
2023-04-20T06:40:41.148Z,5.60
2023-04-20T06:43:08.297Z,5.75
2023-04-20T06:45:35.168Z,5.80
2023-04-20T06:48:02.544Z,5.74
2023-04-20T06:50:29.753Z,5.94
2023-04-20T06:52:56.851Z,5.79
2023-04-20T06:55:23.908Z,5.75
2023-04-20T06:57:53.193Z,6.05
2023-04-20T07:00:20.433Z,6.31
2023-04-20T07:02:51.452Z,6.09
2023-04-20T07:05:19.067Z,6.31
2023-04-20T07:07:46.407Z,5.93
2023-04-20T07:10:15.464Z,5.94
2023-04-20T07:12:43.814Z,5.81
2023-04-20T07:15:12.217Z,5.90
2023-04-20T07:17:39.429Z,6.06
2023-04-20T07:20:10.524Z,6.01
2023-04-20T07:22:38.972Z,5.98
2023-04-20T07:25:09.808Z,5.72
2023-04-20T07:27:39.117Z,6.18
2023-04-20T07:30:07.770Z,6.36
2023-04-20T07:32:35.397Z,6.04
2023-04-20T07:35:02.636Z,6.12
2023-04-20T07:37:30.137Z,5.96
2023-04-20T07:39:56.866Z,5.93
2023-04-20T07:42:23.897Z,5.77
2023-04-20T07:44:51.043Z,5.80
2023-04-20T07:47:18.158Z,6.01
2023-04-20T07:49:45.231Z,6.01
2023-04-20T07:52:16.909Z,6.14
2023-04-20T07:54:47.688Z,6.06
2023-04-20T07:57:15.355Z,6.11
2023-04-20T07:59:42.508Z,5.91
2023-04-20T08:02:09.602Z,5.99
2023-04-20T08:04:38.455Z,5.89
2023-04-20T08:07:05.606Z,5.80
2023-04-20T08:09:32.416Z,5.94
2023-04-20T08:11:59.449Z,6.07
2023-04-20T08:14:28.612Z,6.02
2023-04-20T08:16:55.692Z,6.06
2023-04-20T08:19:27.815Z,6.25
2023-04-20T08:21:55.039Z,6.32
2023-04-20T08:24:21.975Z,6.41
2023-04-20T08:26:49.691Z,6.11
2023-04-20T08:29:16.684Z,6.11
2023-04-20T08:31:43.557Z,5.98
2023-04-20T08:34:11.936Z,5.89
2023-04-20T08:36:38.864Z,5.69
2023-04-20T08:39:12.494Z,5.66
2023-04-20T08:41:39.500Z,5.66
2023-04-20T08:44:08.047Z,5.62
2023-04-20T08:46:35.473Z,5.64
2023-04-20T08:49:03.843Z,5.50
2023-04-20T08:51:32.904Z,5.57
2023-04-20T08:54:06.922Z,5.73
2023-04-20T08:56:38.798Z,5.76
2023-04-20T08:59:09.640Z,5.85
2023-04-20T09:01:37.952Z,5.85
2023-04-20T09:04:20.259Z,5.92
2023-04-20T09:06:52.051Z,6.29
2023-04-20T09:09:20.196Z,6.90
2023-04-20T09:11:47.487Z,7.23
2023-04-20T09:14:16.963Z,7.22
2023-04-20T09:17:00.943Z,7.30
2023-04-20T09:19:32.791Z,7.59
2023-04-20T09:22:06.920Z,7.26
2023-04-20T09:24:35.513Z,7.05
2023-04-20T09:27:14.487Z,7.46
2023-04-20T09:29:41.631Z,8.31
2023-04-20T09:32:09.061Z,9.83
2023-04-20T09:34:45.882Z,9.64
2023-04-20T09:37:16.808Z,9.12
2023-04-20T09:39:45.996Z,9.09
2023-04-20T09:42:15.083Z,9.23
2023-04-20T09:44:42.832Z,9.20
2023-04-20T09:47:21.780Z,9.00
2023-04-20T09:49:48.638Z,8.73
2023-04-20T09:52:19.036Z,8.13
2023-04-20T09:54:46.516Z,8.19
2023-04-20T09:57:15.048Z,7.89
2023-04-20T09:59:47.816Z,7.48
2023-04-20T10:02:15.362Z,7.41
2023-04-20T10:04:59.021Z,7.57
2023-04-20T10:07:26.908Z,7.59
2023-04-20T10:10:08.690Z,7.54
2023-04-20T10:12:48.225Z,7.64
2023-04-20T10:15:15.285Z,7.93
2023-04-20T10:17:42.151Z,8.87
2023-04-20T10:20:41.394Z,9.55
2023-04-20T10:23:12.621Z,12.60
2023-04-20T10:25:39.632Z,13.00
2023-04-20T10:28:10.735Z,13.57
2023-04-20T10:30:50.085Z,13.59
2023-04-20T10:33:18.174Z,13.28
2023-04-20T10:35:56.355Z,12.25
2023-04-20T10:38:36.532Z,10.75
2023-04-20T10:41:10.198Z,9.98
2023-04-20T10:43:39.314Z,9.63
2023-04-20T10:46:20.296Z,9.49
2023-04-20T10:49:01.738Z,8.97
2023-04-20T10:51:29.017Z,8.61
2023-04-20T10:54:15.404Z,8.77
2023-04-20T10:56:54.317Z,9.11
2023-04-20T10:59:23.591Z,9.37
2023-04-20T11:01:51.804Z,9.52
2023-04-20T11:04:22.071Z,9.58
2023-04-20T11:06:49.057Z,9.38
2023-04-20T11:09:28.583Z,9.57
2023-04-20T11:12:09.694Z,10.31
2023-04-20T11:14:39.179Z,10.31
2023-04-20T11:17:06.842Z,10.33
2023-04-20T11:19:36.253Z,9.83
2023-04-20T11:22:05.615Z,9.12
2023-04-20T11:24:34.575Z,9.11
2023-04-20T11:27:03.175Z,8.93
2023-04-20T11:29:37.037Z,9.27
2023-04-20T11:32:09.741Z,9.17
2023-04-20T11:34:38.818Z,9.38
2023-04-20T11:37:10.654Z,9.90
2023-04-20T11:39:38.396Z,9.90
2023-04-20T11:42:05.990Z,10.27
2023-04-20T11:44:33.304Z,10.14
2023-04-20T11:47:01.383Z,10.11
2023-04-20T11:49:29.404Z,10.12
2023-04-20T11:51:56.262Z,10.34
2023-04-20T11:54:26.642Z,9.83
2023-04-20T11:56:54.229Z,9.56
2023-04-20T11:59:21.823Z,9.55
2023-04-20T12:01:48.678Z,9.76
2023-04-20T12:04:16.460Z,10.08
2023-04-20T12:06:44.142Z,10.06
2023-04-20T12:09:11.222Z,9.59
2023-04-20T12:11:38.241Z,9.96
2023-04-20T12:14:05.407Z,9.40
2023-04-20T12:16:32.610Z,9.00
2023-04-20T12:18:59.698Z,8.67
2023-04-20T12:21:27.556Z,8.46
2023-04-20T12:23:54.468Z,8.32
2023-04-20T12:26:25.277Z,8.36
2023-04-20T12:28:58.779Z,8.24
2023-04-20T12:31:26.642Z,8.19
2023-04-20T12:33:53.880Z,8.23
2023-04-20T12:36:21.010Z,8.26
2023-04-20T12:38:47.855Z,8.33
2023-04-20T12:41:15.595Z,8.09
2023-04-20T12:43:42.695Z,8.00
2023-04-20T12:46:09.786Z,8.02
2023-04-20T12:48:36.820Z,7.99
2023-04-20T12:51:03.782Z,8.11
2023-04-20T12:53:30.935Z,7.87
2023-04-20T12:56:01.289Z,7.90
2023-04-20T12:58:28.662Z,8.22
2023-04-20T13:00:55.779Z,8.24
2023-04-20T13:03:22.808Z,8.47
2023-04-20T13:05:49.930Z,8.51
2023-04-20T13:08:17.460Z,8.86
2023-04-20T13:10:44.683Z,9.10
2023-04-20T13:13:11.869Z,9.17
2023-04-20T13:15:39.620Z,9.21
2023-04-20T13:18:07.290Z,9.47
2023-04-20T13:20:34.265Z,9.70
2023-04-20T13:23:02.063Z,9.76
2023-04-20T13:25:32.933Z,9.92
2023-04-20T13:28:01.287Z,9.91
2023-04-20T13:30:28.565Z,9.74
2023-04-20T13:32:55.850Z,9.75
2023-04-20T13:35:24.133Z,9.96
2023-04-20T13:37:51.157Z,10.32
2023-04-20T13:40:17.983Z,10.52
2023-04-20T13:42:44.967Z,10.97
2023-04-20T13:45:12.510Z,11.38
2023-04-20T13:47:40.661Z,12.28
2023-04-20T13:50:08.969Z,11.78
2023-04-20T13:52:36.474Z,11.53
2023-04-20T13:55:04.219Z,11.46
2023-04-20T13:57:34.103Z,11.78
2023-04-20T14:00:01.951Z,11.67
2023-04-20T14:02:29.556Z,11.53
2023-04-20T14:04:56.950Z,11.65
2023-04-20T14:07:23.935Z,11.81
2023-04-20T14:09:52.923Z,12.00
2023-04-20T14:12:19.998Z,11.31
2023-04-20T14:14:46.901Z,10.98
2023-04-20T14:17:14.372Z,11.18
2023-04-20T14:19:41.269Z,11.10
2023-04-20T14:22:08.322Z,11.79
2023-04-20T14:24:35.217Z,12.36
2023-04-20T14:27:02.222Z,12.13
2023-04-20T14:29:29.031Z,12.66
2023-04-20T14:31:56.041Z,12.72
2023-04-20T14:34:22.887Z,12.45
2023-04-20T14:36:49.819Z,12.04
2023-04-20T14:39:19.961Z,12.08
2023-04-20T14:41:47.480Z,11.97
2023-04-20T14:44:14.448Z,11.96
2023-04-20T14:46:42.540Z,11.88
2023-04-20T14:49:10.386Z,11.83
2023-04-20T14:51:37.349Z,11.96
2023-04-20T14:54:04.336Z,12.39
2023-04-20T14:56:31.438Z,12.14
2023-04-20T14:58:59.852Z,12.23
2023-04-20T15:01:27.878Z,12.62
2023-04-20T15:03:55.348Z,12.95
2023-04-20T15:06:22.606Z,13.66
2023-04-20T15:08:49.629Z,13.51
2023-04-20T15:11:16.513Z,13.33
2023-04-20T15:13:43.930Z,13.47
2023-04-20T15:16:13.409Z,13.61
2023-04-20T15:18:40.305Z,13.45
2023-04-20T15:21:08.634Z,13.51
2023-04-20T15:23:35.726Z,13.41
2023-04-20T15:26:03.054Z,13.89
2023-04-20T15:28:30.056Z,13.96
2023-04-20T15:30:56.867Z,13.96
2023-04-20T15:33:23.828Z,14.11
2023-04-20T15:35:50.651Z,14.24
2023-04-20T15:38:18.187Z,14.25
2023-04-20T15:40:45.160Z,14.04
2023-04-20T15:43:11.930Z,13.44
2023-04-20T15:45:38.815Z,13.00
2023-04-20T15:48:06.497Z,12.97
2023-04-20T15:50:33.344Z,12.58
2023-04-20T15:53:00.209Z,12.46
2023-04-20T15:55:27.462Z,12.44
2023-04-20T15:58:00.606Z,12.40
2023-04-20T16:00:27.795Z,12.75
2023-04-20T16:02:55.032Z,12.88
2023-04-20T16:05:22.553Z,12.71
2023-04-20T16:07:51.631Z,12.85
2023-04-20T16:10:18.649Z,12.95
2023-04-20T16:12:45.817Z,13.05
2023-04-20T16:15:12.892Z,13.07
2023-04-20T16:17:39.755Z,12.97
2023-04-20T16:20:07.417Z,13.26
2023-04-20T16:22:34.281Z,13.47
2023-04-20T16:25:01.082Z,13.55
2023-04-20T16:27:28.052Z,13.47
2023-04-20T16:29:55.049Z,13.41
2023-04-20T16:32:22.279Z,13.58
2023-04-20T16:34:49.501Z,13.30
2023-04-20T16:37:16.593Z,13.21
2023-04-20T16:39:43.776Z,13.17
2023-04-20T16:42:10.652Z,13.15
2023-04-20T16:44:38.598Z,13.12
2023-04-20T16:47:07.464Z,12.98
2023-04-20T16:49:37.571Z,12.86
2023-04-20T16:52:04.524Z,12.76
2023-04-20T16:54:31.380Z,12.72
2023-04-20T16:57:01.680Z,12.64
2023-04-20T16:59:28.603Z,12.41
2023-04-20T17:01:55.554Z,12.32
2023-04-20T17:04:23.062Z,12.20
2023-04-20T17:06:50.506Z,11.98
2023-04-20T17:09:17.626Z,11.87
2023-04-20T17:11:44.584Z,11.71
2023-04-20T17:14:11.662Z,11.53
2023-04-20T17:16:38.533Z,11.32
2023-04-20T17:19:05.555Z,11.30
2023-04-20T17:21:32.589Z,11.36
2023-04-20T17:23:59.794Z,11.08
2023-04-20T17:26:29.384Z,10.96
2023-04-20T17:28:56.515Z,10.76
2023-04-20T17:31:23.591Z,10.59
2023-04-20T17:33:50.796Z,10.70
2023-04-20T17:36:17.843Z,10.77
2023-04-20T17:38:44.590Z,10.70
2023-04-20T17:41:11.652Z,10.42
2023-04-20T17:43:40.612Z,10.33
2023-04-20T17:46:08.379Z,10.28
2023-04-20T17:48:35.482Z,10.13
2023-04-20T17:51:02.405Z,9.95
2023-04-20T17:53:29.309Z,10.10
2023-04-20T17:55:56.321Z,9.89
2023-04-20T17:58:25.140Z,9.80
2023-04-20T18:00:52.134Z,9.62
2023-04-20T18:03:20.207Z,9.60
2023-04-20T18:05:47.623Z,9.38
2023-04-20T18:08:15.814Z,9.34
2023-04-20T18:10:42.838Z,9.23
2023-04-20T18:13:09.987Z,9.16
2023-04-20T18:15:36.894Z,9.09
2023-04-20T18:18:04.385Z,8.97
2023-04-20T18:20:32.576Z,8.93
2023-04-20T18:22:59.596Z,9.04
2023-04-20T18:25:26.731Z,8.89
2023-04-20T18:27:56.694Z,8.77
2023-04-20T18:30:23.960Z,8.47
2023-04-20T18:32:51.276Z,8.54
2023-04-20T18:35:19.528Z,8.67
2023-04-20T18:37:46.585Z,8.53
2023-04-20T18:40:15.497Z,8.55
2023-04-20T18:42:43.454Z,8.54
2023-04-20T18:45:12.463Z,8.60
2023-04-20T18:47:39.950Z,8.59
2023-04-20T18:50:07.371Z,8.36
2023-04-20T18:52:34.535Z,8.52
2023-04-20T18:55:01.685Z,8.33
2023-04-20T18:57:29.284Z,8.39
2023-04-20T18:59:56.702Z,8.31
2023-04-20T19:02:24.281Z,8.22
2023-04-20T19:04:51.384Z,8.32
2023-04-20T19:07:18.940Z,8.25
2023-04-20T19:09:45.918Z,8.21
2023-04-20T19:12:12.950Z,8.19
2023-04-20T19:14:40.164Z,8.08
2023-04-20T19:17:07.682Z,7.98
2023-04-20T19:19:34.754Z,8.21
2023-04-20T19:22:03.630Z,8.18
2023-04-20T19:24:32.237Z,8.12
2023-04-20T19:26:59.408Z,8.10
2023-04-20T19:29:26.512Z,8.09
2023-04-20T19:31:53.543Z,8.16
2023-04-20T19:34:21.498Z,8.03
2023-04-20T19:36:48.943Z,7.92
2023-04-20T19:39:16.118Z,7.97
2023-04-20T19:41:43.075Z,8.07
2023-04-20T19:44:10.620Z,7.90
2023-04-20T19:46:38.887Z,7.88
2023-04-20T19:49:06.563Z,7.92
2023-04-20T19:51:33.789Z,7.82
2023-04-20T19:54:02.307Z,7.70
2023-04-20T19:56:29.238Z,7.79
2023-04-20T19:58:55.985Z,7.64
2023-04-20T20:01:23.044Z,7.71
2023-04-20T20:03:50.325Z,7.64
2023-04-20T20:06:17.586Z,7.72
2023-04-20T20:08:44.584Z,7.65
2023-04-20T20:11:11.785Z,7.64
2023-04-20T20:13:38.588Z,7.57
2023-04-20T20:16:05.730Z,7.50
2023-04-20T20:18:32.732Z,7.57
2023-04-20T20:20:59.465Z,7.51
2023-04-20T20:23:26.474Z,7.56
2023-04-20T20:25:53.380Z,7.48
2023-04-20T20:28:20.700Z,7.41
2023-04-20T20:30:47.573Z,7.43
2023-04-20T20:33:15.027Z,7.41
2023-04-20T20:35:43.187Z,7.39
2023-04-20T20:38:11.257Z,7.38
2023-04-20T20:40:39.995Z,7.27
2023-04-20T20:43:07.049Z,7.26
2023-04-20T20:45:33.979Z,7.22
2023-04-20T20:48:01.250Z,7.22
2023-04-20T20:50:28.543Z,7.22
2023-04-20T20:52:55.660Z,7.28
2023-04-20T20:55:22.776Z,7.24
2023-04-20T20:57:49.692Z,7.16
2023-04-20T21:00:16.589Z,7.22
2023-04-20T21:02:43.723Z,7.18
2023-04-20T21:05:11.000Z,7.30
2023-04-20T21:07:38.208Z,7.24
2023-04-20T21:10:07.278Z,7.23
2023-04-20T21:12:34.157Z,7.22
2023-04-20T21:15:01.378Z,7.25
2023-04-20T21:17:28.474Z,7.19
2023-04-20T21:19:55.560Z,7.16
2023-04-20T21:22:22.771Z,7.05
2023-04-20T21:24:51.105Z,7.02
2023-04-20T21:27:18.005Z,6.94
2023-04-20T21:29:44.844Z,6.96
2023-04-20T21:32:11.948Z,6.90
2023-04-20T21:34:38.957Z,6.89
2023-04-20T21:37:07.341Z,6.92
2023-04-20T21:39:34.337Z,6.82
2023-04-20T21:42:01.711Z,6.91
2023-04-20T21:44:28.745Z,6.79
2023-04-20T21:46:55.818Z,6.85
2023-04-20T21:49:22.890Z,6.83
2023-04-20T21:51:50.067Z,7.00
2023-04-20T21:54:17.225Z,7.04
2023-04-20T21:56:44.226Z,7.02
2023-04-20T21:59:11.315Z,7.02
2023-04-20T22:01:38.527Z,7.12
2023-04-20T22:04:06.058Z,7.15
2023-04-20T22:06:36.488Z,7.15
2023-04-20T22:09:04.771Z,7.21
2023-04-20T22:11:36.665Z,7.33
2023-04-20T22:14:04.766Z,7.28
2023-04-20T22:16:34.208Z,7.30
2023-04-20T22:19:01.565Z,7.24
2023-04-20T22:21:28.993Z,7.25
2023-04-20T22:23:55.915Z,7.14
2023-04-20T22:26:23.044Z,7.22
2023-04-20T22:28:50.137Z,7.21
2023-04-20T22:31:17.846Z,7.16
2023-04-20T22:33:44.921Z,6.72
2023-04-20T22:36:12.090Z,7.00
2023-04-20T22:38:39.012Z,6.80
2023-04-20T22:41:08.481Z,6.79
2023-04-20T22:43:35.592Z,6.72
2023-04-20T22:46:02.483Z,6.64
2023-04-20T22:48:29.465Z,6.68
2023-04-20T22:51:00.866Z,6.66
2023-04-20T22:53:30.385Z,6.66
2023-04-20T22:56:07.387Z,6.45
2023-04-20T22:58:35.150Z,6.44
2023-04-20T23:01:03.806Z,6.42
2023-04-20T23:03:31.417Z,6.49
2023-04-20T23:05:59.359Z,6.40
2023-04-20T23:08:26.452Z,6.30
2023-04-20T23:10:56.476Z,6.36
2023-04-20T23:13:26.661Z,6.22
2023-04-20T23:15:53.912Z,6.12
2023-04-20T23:18:21.923Z,6.17
2023-04-20T23:20:48.845Z,6.21
2023-04-20T23:23:15.774Z,6.12
2023-04-20T23:25:42.713Z,6.15
2023-04-20T23:28:10.062Z,6.06
2023-04-20T23:30:36.963Z,6.02
2023-04-20T23:33:03.947Z,6.20
2023-04-20T23:35:31.215Z,6.03
2023-04-20T23:37:58.389Z,6.09
2023-04-20T23:40:26.785Z,6.01
2023-04-20T23:42:56.153Z,6.04
2023-04-20T23:45:23.545Z,6.04
2023-04-20T23:47:50.510Z,6.00
2023-04-20T23:50:17.768Z,5.93
2023-04-20T23:52:44.691Z,5.94
2023-04-20T23:55:11.866Z,5.89
2023-04-20T23:57:38.889Z,5.89
